createdAt,value
2017-11-06T00:02:32.383Z,90.49
2017-11-06T00:05:07.241Z,90.48
2017-11-06T00:07:42.171Z,90.73
2017-11-06T00:10:17.000Z,90.85
2017-11-06T00:12:52.244Z,91.10
2017-11-06T00:15:27.099Z,91.17
2017-11-06T00:18:02.204Z,91.14
2017-11-06T00:20:37.452Z,91.07
2017-11-06T00:23:12.532Z,91.20
2017-11-06T00:25:46.955Z,91.28
2017-11-06T00:28:21.668Z,91.08
2017-11-06T00:30:56.400Z,91.04
2017-11-06T00:33:31.127Z,91.17
2017-11-06T00:36:05.740Z,91.34
2017-11-06T00:38:40.751Z,91.53
2017-11-06T00:41:15.679Z,91.63
2017-11-06T00:43:50.435Z,91.65
2017-11-06T00:46:25.659Z,91.69
2017-11-06T00:49:02.388Z,91.68
2017-11-06T00:51:37.439Z,91.68
2017-11-06T00:54:12.172Z,91.90
2017-11-06T00:56:47.524Z,92.10
2017-11-06T00:59:22.260Z,92.28
2017-11-06T01:01:56.688Z,92.45
2017-11-06T01:04:31.763Z,92.55
2017-11-06T01:07:06.489Z,92.54
2017-11-06T01:09:41.675Z,92.58
2017-11-06T01:12:16.492Z,92.39
2017-11-06T01:14:51.783Z,92.37
2017-11-06T01:17:26.600Z,92.47
2017-11-06T01:20:01.544Z,92.67
2017-11-06T01:22:36.432Z,92.68
2017-11-06T01:25:11.198Z,92.66
2017-11-06T01:27:46.107Z,92.74
2017-11-06T01:30:21.224Z,92.89
2017-11-06T01:32:55.809Z,92.87
2017-11-06T01:35:30.068Z,92.78
2017-11-06T01:38:05.246Z,92.70
2017-11-06T01:40:40.131Z,92.66
2017-11-06T01:43:14.612Z,92.64
2017-11-06T01:45:49.847Z,92.66
2017-11-06T01:48:24.559Z,92.72
2017-11-06T01:50:59.301Z,92.78
2017-11-06T01:53:34.272Z,92.90
2017-11-06T01:56:09.202Z,93.02
2017-11-06T01:58:44.928Z,93.06
2017-11-06T02:01:19.362Z,93.06
2017-11-06T02:03:54.358Z,92.98
2017-11-06T02:06:28.452Z,92.91
2017-11-06T02:09:03.172Z,92.90
2017-11-06T02:11:38.389Z,92.93
2017-11-06T02:14:12.773Z,93.01
2017-11-06T02:16:47.947Z,93.03
2017-11-06T02:19:22.956Z,93.18
2017-11-06T02:21:57.503Z,93.31
2017-11-06T02:24:32.615Z,93.34
2017-11-06T02:27:06.927Z,93.40
2017-11-06T02:29:41.847Z,93.44
2017-11-06T02:32:16.667Z,93.46
2017-11-06T02:34:51.636Z,93.58
2017-11-06T02:37:26.528Z,93.81
2017-11-06T02:40:01.356Z,93.96
2017-11-06T02:42:36.063Z,93.93
2017-11-06T02:45:10.963Z,93.95
2017-11-06T02:47:45.703Z,94.13
2017-11-06T02:50:20.546Z,94.18
2017-11-06T02:52:55.456Z,94.33
2017-11-06T02:55:30.204Z,94.46
2017-11-06T02:58:04.669Z,94.70
2017-11-06T03:00:39.451Z,94.81
2017-11-06T03:03:14.419Z,94.81
2017-11-06T03:05:49.149Z,94.87
2017-11-06T03:08:24.076Z,94.96
2017-11-06T03:10:59.372Z,95.18
2017-11-06T03:13:34.522Z,95.23
2017-11-06T03:16:09.419Z,95.28
2017-11-06T03:18:44.271Z,95.30
2017-11-06T03:21:19.263Z,95.08
2017-11-06T03:23:54.564Z,94.91
2017-11-06T03:26:29.753Z,94.91
2017-11-06T03:29:05.339Z,94.98
2017-11-06T03:31:40.140Z,94.97
2017-11-06T03:34:14.955Z,95.13
2017-11-06T03:36:49.737Z,95.21
2017-11-06T03:39:25.320Z,95.19
2017-11-06T03:41:59.931Z,95.09
2017-11-06T03:44:35.072Z,95.05
2017-11-06T03:47:09.712Z,95.05
2017-11-06T03:49:44.552Z,94.97
2017-11-06T03:52:19.275Z,95.00
2017-11-06T03:54:54.088Z,95.00
2017-11-06T03:57:28.931Z,95.08
2017-11-06T04:00:03.831Z,95.07
2017-11-06T04:02:38.884Z,95.21
2017-11-06T04:05:13.699Z,95.24
2017-11-06T04:07:49.366Z,95.31
2017-11-06T04:10:24.467Z,95.30
2017-11-06T04:12:59.292Z,95.54
2017-11-06T04:15:34.400Z,95.78
2017-11-06T04:18:09.277Z,95.78
2017-11-06T04:20:43.727Z,95.98
2017-11-06T04:23:18.775Z,95.91
2017-11-06T04:25:54.040Z,95.84
2017-11-06T04:28:29.280Z,95.80
2017-11-06T04:31:03.749Z,95.81
2017-11-06T04:33:38.743Z,95.84
2017-11-06T04:36:13.552Z,95.74
2017-11-06T04:38:48.332Z,95.64
2017-11-06T04:41:22.811Z,95.55
2017-11-06T04:43:57.259Z,95.55
2017-11-06T04:46:31.817Z,95.52
2017-11-06T04:49:06.779Z,95.45
2017-11-06T04:51:41.668Z,95.43
2017-11-06T04:54:16.516Z,95.34
2017-11-06T04:56:51.611Z,95.20
2017-11-06T04:59:26.483Z,95.22
2017-11-06T05:02:01.607Z,95.27
2017-11-06T05:04:36.513Z,95.16
2017-11-06T05:07:11.420Z,95.20
2017-11-06T05:09:46.336Z,95.29
2017-11-06T05:12:21.492Z,95.41
2017-11-06T05:14:56.281Z,95.46
2017-11-06T05:17:31.362Z,95.50
2017-11-06T05:20:06.588Z,95.58
2017-11-06T05:22:41.720Z,95.52
2017-11-06T05:25:16.632Z,95.61
2017-11-06T05:27:51.811Z,95.55
2017-11-06T05:30:27.516Z,95.61
2017-11-06T05:33:02.174Z,95.69
2017-11-06T05:35:37.239Z,95.81
2017-11-06T05:38:11.876Z,95.90
2017-11-06T05:40:46.583Z,95.88
2017-11-06T05:43:21.793Z,95.82
2017-11-06T05:45:56.929Z,95.87
2017-11-06T05:48:32.123Z,95.95
2017-11-06T05:51:06.643Z,96.03
2017-11-06T05:53:41.315Z,96.12
2017-11-06T05:56:16.233Z,96.17
2017-11-06T05:58:50.953Z,96.03
2017-11-06T06:01:26.016Z,95.98
2017-11-06T06:04:00.999Z,95.99
2017-11-06T06:06:35.904Z,95.98
2017-11-06T06:09:10.733Z,96.08
2017-11-06T06:11:45.616Z,96.08
2017-11-06T06:14:22.224Z,96.01
2017-11-06T06:16:57.686Z,96.04
2017-11-06T06:19:32.247Z,96.03
2017-11-06T06:22:07.024Z,96.19
2017-11-06T06:24:41.424Z,96.25
2017-11-06T06:27:16.804Z,96.06
2017-11-06T06:29:51.769Z,96.01
2017-11-06T06:32:26.597Z,95.99
2017-11-06T06:35:01.640Z,96.00
2017-11-06T06:37:36.622Z,95.96
2017-11-06T06:40:11.634Z,96.19
2017-11-06T06:42:46.500Z,96.33
2017-11-06T06:45:21.256Z,96.38
2017-11-06T06:47:56.563Z,96.40
2017-11-06T06:50:30.959Z,96.43
2017-11-06T06:53:05.904Z,96.47
2017-11-06T06:55:40.664Z,96.48
2017-11-06T06:58:15.923Z,96.57
2017-11-06T07:00:50.975Z,96.59
2017-11-06T07:03:25.620Z,96.67
2017-11-06T07:06:00.595Z,96.79
2017-11-06T07:08:35.836Z,96.79
2017-11-06T07:11:10.587Z,96.82
2017-11-06T07:13:45.060Z,97.01
2017-11-06T07:16:20.010Z,97.06
2017-11-06T07:18:54.640Z,97.25
2017-11-06T07:21:29.464Z,97.45
2017-11-06T07:24:04.320Z,97.52
2017-11-06T07:26:39.374Z,97.60
2017-11-06T07:29:14.294Z,97.59
2017-11-06T07:31:48.861Z,97.52
2017-11-06T07:34:23.945Z,97.62
2017-11-06T07:36:58.864Z,97.60
2017-11-06T07:39:33.524Z,97.56
2017-11-06T07:42:08.756Z,96.94
2017-11-06T07:44:43.763Z,95.40
2017-11-06T07:47:18.772Z,94.74
2017-11-06T07:49:53.579Z,94.41
2017-11-06T07:52:28.733Z,93.51
2017-11-06T07:55:03.805Z,93.02
2017-11-06T07:57:39.336Z,93.24
2017-11-06T08:00:13.989Z,93.54
2017-11-06T08:02:49.237Z,93.32
2017-11-06T08:05:24.191Z,93.23
2017-11-06T08:07:59.112Z,92.40
2017-11-06T08:10:33.572Z,92.39
2017-11-06T08:13:08.567Z,91.83
2017-11-06T08:15:43.440Z,90.60
2017-11-06T08:18:18.738Z,90.06
2017-11-06T08:20:53.785Z,89.22
2017-11-06T08:23:28.713Z,88.57
2017-11-06T08:26:03.944Z,88.66
2017-11-06T08:28:39.080Z,88.33
2017-11-06T08:31:13.877Z,86.32
2017-11-06T08:33:48.776Z,85.78
2017-11-06T08:36:23.804Z,85.36
2017-11-06T08:38:58.607Z,85.99
2017-11-06T08:41:33.737Z,86.30
2017-11-06T08:44:08.961Z,85.88
2017-11-06T08:46:44.232Z,84.56
2017-11-06T08:49:19.260Z,84.06
2017-11-06T08:51:54.316Z,83.50
2017-11-06T08:54:29.430Z,83.87
2017-11-06T08:57:03.956Z,84.35
2017-11-06T08:59:38.380Z,83.59
2017-11-06T09:02:13.512Z,84.58
2017-11-06T09:04:47.967Z,85.25
2017-11-06T09:07:22.400Z,85.69
2017-11-06T09:09:57.671Z,85.53
2017-11-06T09:12:32.905Z,84.65
2017-11-06T09:15:07.951Z,84.22
2017-11-06T09:17:42.403Z,84.34
2017-11-06T09:20:17.061Z,84.22
2017-11-06T09:22:52.367Z,84.07
2017-11-06T09:25:27.616Z,83.73
2017-11-06T09:28:02.715Z,83.31
2017-11-06T09:30:37.273Z,82.78
2017-11-06T09:33:11.797Z,81.51
2017-11-06T09:35:46.843Z,80.96
2017-11-06T09:38:21.786Z,79.05
2017-11-06T09:40:57.060Z,78.74
2017-11-06T09:43:31.519Z,79.13
2017-11-06T09:46:06.756Z,79.91
2017-11-06T09:48:41.896Z,78.68
2017-11-06T09:51:16.791Z,77.47
2017-11-06T09:53:51.824Z,75.70
2017-11-06T09:56:26.920Z,76.69
2017-11-06T09:59:01.980Z,76.98
2017-11-06T10:01:37.007Z,76.00
2017-11-06T10:04:11.967Z,76.42
2017-11-06T10:06:46.964Z,75.74
2017-11-06T10:09:21.768Z,76.51
2017-11-06T10:11:56.725Z,76.54
2017-11-06T10:14:31.646Z,78.18
2017-11-06T10:17:06.755Z,77.61
2017-11-06T10:19:41.512Z,76.46
2017-11-06T10:22:16.288Z,75.85
2017-11-06T10:24:51.187Z,74.80
2017-11-06T10:27:26.308Z,74.12
2017-11-06T10:30:01.121Z,72.80
2017-11-06T10:32:35.856Z,72.82
2017-11-06T10:35:10.564Z,72.40
2017-11-06T10:37:45.892Z,71.33
2017-11-06T10:40:20.371Z,71.52
2017-11-06T10:42:55.219Z,72.07
2017-11-06T10:45:29.701Z,71.58
2017-11-06T10:48:04.351Z,70.24
2017-11-06T10:50:39.347Z,69.79
2017-11-06T10:53:14.686Z,68.16
2017-11-06T10:55:49.232Z,68.00
2017-11-06T10:58:24.036Z,65.55
2017-11-06T11:00:58.951Z,65.11
2017-11-06T11:03:33.592Z,64.46
2017-11-06T11:06:07.785Z,65.54
2017-11-06T11:08:43.144Z,65.24
2017-11-06T11:11:18.058Z,64.72
2017-11-06T11:13:52.596Z,65.01
2017-11-06T11:16:27.640Z,65.84
2017-11-06T11:19:02.211Z,63.59
2017-11-06T11:21:37.312Z,64.82
2017-11-06T11:24:11.691Z,63.85
2017-11-06T11:26:47.008Z,62.28
2017-11-06T11:29:21.075Z,61.74
2017-11-06T11:31:55.944Z,61.21
2017-11-06T11:34:30.128Z,62.31
2017-11-06T11:37:05.149Z,61.71
2017-11-06T11:39:39.585Z,59.98
2017-11-06T11:42:14.176Z,60.57
2017-11-06T11:44:49.285Z,59.92
2017-11-06T11:47:24.055Z,59.49
2017-11-06T11:49:58.869Z,59.56
2017-11-06T11:52:33.616Z,58.18
2017-11-06T11:55:08.547Z,59.75
2017-11-06T11:57:43.671Z,60.15
2017-11-06T12:00:18.408Z,60.31
2017-11-06T12:02:53.400Z,60.41
2017-11-06T12:05:28.325Z,60.79
2017-11-06T12:08:03.371Z,60.43
2017-11-06T12:10:38.420Z,59.58
2017-11-06T12:13:13.700Z,58.85
2017-11-06T12:15:49.224Z,59.74
2017-11-06T12:18:24.047Z,59.49
2017-11-06T12:20:59.011Z,59.42
2017-11-06T12:23:34.008Z,61.69
2017-11-06T12:26:09.020Z,61.82
2017-11-06T12:28:43.765Z,62.22
2017-11-06T12:31:18.663Z,63.07
2017-11-06T12:33:53.653Z,63.23
2017-11-06T12:36:28.127Z,62.76
2017-11-06T12:39:03.064Z,64.30
2017-11-06T12:41:38.159Z,64.67
2017-11-06T12:44:13.318Z,64.59
2017-11-06T12:46:48.211Z,63.77
2017-11-06T12:49:23.216Z,62.64
2017-11-06T12:51:58.020Z,62.95
2017-11-06T12:54:32.719Z,64.51
2017-11-06T12:57:07.666Z,64.17
2017-11-06T12:59:42.658Z,63.43
2017-11-06T13:02:17.203Z,62.48
2017-11-06T13:04:52.164Z,60.86
2017-11-06T13:07:26.995Z,59.32
2017-11-06T13:10:02.592Z,59.07
2017-11-06T13:12:37.478Z,57.09
2017-11-06T13:15:12.327Z,58.40
2017-11-06T13:17:47.327Z,57.70
2017-11-06T13:20:22.252Z,58.54
2017-11-06T13:22:57.268Z,59.08
2017-11-06T13:25:32.315Z,58.88
2017-11-06T13:28:07.376Z,59.09
2017-11-06T13:30:42.415Z,59.16
2017-11-06T13:33:17.471Z,58.65
2017-11-06T13:35:52.276Z,59.69
2017-11-06T13:38:27.284Z,59.17
2017-11-06T13:41:02.213Z,58.55
2017-11-06T13:43:37.084Z,56.10
2017-11-06T13:46:11.948Z,55.68
2017-11-06T13:48:46.804Z,54.76
2017-11-06T13:51:21.931Z,54.82
2017-11-06T13:53:56.780Z,56.35
2017-11-06T13:56:31.532Z,57.50
2017-11-06T13:59:06.284Z,57.94
2017-11-06T14:01:41.345Z,56.55
2017-11-06T14:04:15.904Z,58.03
2017-11-06T14:06:50.772Z,59.29
2017-11-06T14:09:25.708Z,59.46
2017-11-06T14:12:00.512Z,59.00
2017-11-06T14:14:35.236Z,59.11
2017-11-06T14:17:10.131Z,59.68
2017-11-06T14:19:44.944Z,59.42
2017-11-06T14:22:19.823Z,58.63
2017-11-06T14:24:54.695Z,59.39
2017-11-06T14:27:29.422Z,58.98
2017-11-06T14:30:06.384Z,59.22
2017-11-06T14:32:41.148Z,57.37
2017-11-06T14:35:15.956Z,58.09
2017-11-06T14:37:50.987Z,58.82
2017-11-06T14:40:25.916Z,59.72
2017-11-06T14:43:00.644Z,60.77
2017-11-06T14:45:35.544Z,61.15
2017-11-06T14:48:10.072Z,61.91
2017-11-06T14:50:45.063Z,62.75
2017-11-06T14:53:20.140Z,63.55
2017-11-06T14:55:54.976Z,63.85
2017-11-06T14:58:29.910Z,63.94
2017-11-06T15:01:04.455Z,64.13
2017-11-06T15:03:39.289Z,64.59
2017-11-06T15:06:13.891Z,64.99
2017-11-06T15:08:49.076Z,65.55
2017-11-06T15:11:24.200Z,65.83
2017-11-06T15:13:59.155Z,66.29
2017-11-06T15:16:33.951Z,66.80
2017-11-06T15:19:09.060Z,67.15
2017-11-06T15:21:43.559Z,67.60
2017-11-06T15:24:18.195Z,68.13
2017-11-06T15:26:53.250Z,68.65
2017-11-06T15:29:28.347Z,68.94
2017-11-06T15:32:03.247Z,69.33
2017-11-06T15:34:38.051Z,69.48
2017-11-06T15:37:12.963Z,69.84
2017-11-06T15:39:47.813Z,70.12
2017-11-06T15:42:22.689Z,70.60
2017-11-06T15:44:57.420Z,70.94
2017-11-06T15:47:32.339Z,71.25
2017-11-06T15:50:07.248Z,71.55
2017-11-06T15:52:42.000Z,71.90
2017-11-06T15:55:17.088Z,72.28
2017-11-06T15:57:52.041Z,72.63
2017-11-06T16:00:27.083Z,73.07
2017-11-06T16:03:02.076Z,73.50
2017-11-06T16:05:36.975Z,73.72
2017-11-06T16:08:11.888Z,74.00
2017-11-06T16:10:46.556Z,74.49
2017-11-06T16:13:21.552Z,74.93
2017-11-06T16:15:56.627Z,76.29
2017-11-06T16:18:31.640Z,77.39
2017-11-06T16:21:06.511Z,77.58
2017-11-06T16:23:41.716Z,77.64
2017-11-06T16:26:16.919Z,77.88
2017-11-06T16:28:52.080Z,78.33
2017-11-06T16:31:26.876Z,78.61
2017-11-06T16:34:01.839Z,78.62
2017-11-06T16:36:36.866Z,78.65
2017-11-06T16:39:11.871Z,78.76
2017-11-06T16:41:46.963Z,78.81
2017-11-06T16:44:21.975Z,78.86
2017-11-06T16:46:57.043Z,79.07
2017-11-06T16:49:31.944Z,79.09
2017-11-06T16:52:07.685Z,79.27
2017-11-06T16:54:42.767Z,79.60
2017-11-06T16:57:17.933Z,79.90
2017-11-06T16:59:52.527Z,80.29
2017-11-06T17:02:27.853Z,80.78
2017-11-06T17:05:03.156Z,81.21
2017-11-06T17:07:38.232Z,81.97
2017-11-06T17:10:13.264Z,82.42
2017-11-06T17:12:48.116Z,82.29
2017-11-06T17:15:22.840Z,82.16
2017-11-06T17:17:58.007Z,81.96
2017-11-06T17:20:32.999Z,82.03
2017-11-06T17:23:08.028Z,82.12
2017-11-06T17:25:43.177Z,82.30
2017-11-06T17:28:18.343Z,82.32
2017-11-06T17:30:53.468Z,82.45
2017-11-06T17:33:28.396Z,82.48
2017-11-06T17:36:03.124Z,82.61
2017-11-06T17:38:38.256Z,82.53
2017-11-06T17:41:13.310Z,82.57
2017-11-06T17:43:48.264Z,82.52
2017-11-06T17:46:23.154Z,82.56
2017-11-06T17:48:58.108Z,82.83
2017-11-06T17:51:33.461Z,83.06
2017-11-06T17:54:08.700Z,83.20
2017-11-06T17:56:44.647Z,83.34
2017-11-06T17:59:19.539Z,83.14
2017-11-06T18:01:54.363Z,83.17
2017-11-06T18:04:29.575Z,83.23
2017-11-06T18:07:04.691Z,83.33
2017-11-06T18:09:39.607Z,83.48
2017-11-06T18:12:14.807Z,83.35
2017-11-06T18:14:49.833Z,83.21
2017-11-06T18:17:24.955Z,83.04
2017-11-06T18:19:59.857Z,83.03
2017-11-06T18:22:34.699Z,83.10
2017-11-06T18:25:10.000Z,82.99
2017-11-06T18:27:44.619Z,82.62
2017-11-06T18:30:19.859Z,82.58
2017-11-06T18:32:54.766Z,82.49
2017-11-06T18:35:29.741Z,82.30
2017-11-06T18:38:03.915Z,82.39
2017-11-06T18:40:39.191Z,82.48
2017-11-06T18:43:14.902Z,82.19
2017-11-06T18:45:49.676Z,82.54
2017-11-06T18:48:24.076Z,82.88
2017-11-06T18:50:59.228Z,82.96
2017-11-06T18:53:34.284Z,82.95
2017-11-06T18:56:09.192Z,82.94
2017-11-06T18:58:45.089Z,82.78
2017-11-06T19:01:19.972Z,82.86
2017-11-06T19:03:55.116Z,82.98
2017-11-06T19:06:29.756Z,83.18
2017-11-06T19:09:04.148Z,83.49
2017-11-06T19:11:38.806Z,83.59
2017-11-06T19:14:13.604Z,84.25
2017-11-06T19:16:48.569Z,85.03
2017-11-06T19:19:23.459Z,85.73
2017-11-06T19:21:58.608Z,86.38
2017-11-06T19:24:33.723Z,86.69
2017-11-06T19:27:08.739Z,86.61
2017-11-06T19:29:43.677Z,86.54
2017-11-06T19:32:18.709Z,86.67
2017-11-06T19:34:54.665Z,86.75
2017-11-06T19:37:29.692Z,86.69
2017-11-06T19:40:04.388Z,86.52
2017-11-06T19:42:39.631Z,86.40
2017-11-06T19:45:14.696Z,86.83
2017-11-06T19:47:49.832Z,87.21
2017-11-06T19:50:24.247Z,87.28
2017-11-06T19:52:59.267Z,87.49
2017-11-06T19:55:34.360Z,88.03
2017-11-06T19:58:08.732Z,88.31
2017-11-06T20:00:43.592Z,88.34
2017-11-06T20:03:18.123Z,88.21
2017-11-06T20:05:53.168Z,88.03
2017-11-06T20:08:28.212Z,87.83
2017-11-06T20:11:03.128Z,88.23
2017-11-06T20:13:38.324Z,88.76
2017-11-06T20:16:13.315Z,88.98
2017-11-06T20:18:48.251Z,89.66
2017-11-06T20:21:23.343Z,90.08
2017-11-06T20:23:58.308Z,90.12
2017-11-06T20:26:32.679Z,89.95
2017-11-06T20:29:07.451Z,89.75
2017-11-06T20:31:42.231Z,89.51
2017-11-06T20:34:17.512Z,89.30
2017-11-06T20:36:51.936Z,88.98
2017-11-06T20:39:26.447Z,88.50
2017-11-06T20:42:01.716Z,88.14
2017-11-06T20:44:36.535Z,87.76
2017-11-06T20:47:11.016Z,87.50
2017-11-06T20:49:45.859Z,87.55
2017-11-06T20:52:20.684Z,88.11
2017-11-06T20:54:55.872Z,88.37
2017-11-06T20:57:30.912Z,88.46
2017-11-06T21:00:06.171Z,88.48
2017-11-06T21:02:41.467Z,88.38
2017-11-06T21:05:16.567Z,88.19
2017-11-06T21:07:51.751Z,87.98
2017-11-06T21:10:28.120Z,88.31
2017-11-06T21:13:03.459Z,88.52
2017-11-06T21:15:38.614Z,88.58
2017-11-06T21:18:13.760Z,88.68
2017-11-06T21:20:48.103Z,88.74
2017-11-06T21:23:23.495Z,88.74
2017-11-06T21:25:58.537Z,88.62
2017-11-06T21:31:18.660Z,88.24
2017-11-06T21:33:53.609Z,88.01
2017-11-06T21:36:28.240Z,87.91
2017-11-06T21:39:03.084Z,87.82
2017-11-06T21:41:38.104Z,88.17
2017-11-06T21:44:12.952Z,88.34
2017-11-06T21:46:48.140Z,88.30
2017-11-06T21:49:23.153Z,88.12
2017-11-06T21:51:57.920Z,87.78
2017-11-06T21:54:32.719Z,87.81
2017-11-06T21:57:07.548Z,87.84
2017-11-06T21:59:42.699Z,87.84
2017-11-06T22:02:17.341Z,87.79
2017-11-06T22:04:52.460Z,87.64
2017-11-06T22:07:27.602Z,87.56
2017-11-06T22:10:02.741Z,87.40
2017-11-06T22:12:37.731Z,87.19
2017-11-06T22:15:12.815Z,87.06
2017-11-06T22:17:47.740Z,86.79
2017-11-06T22:20:22.971Z,86.91
2017-11-06T22:22:57.872Z,86.81
2017-11-06T22:25:32.879Z,86.64
2017-11-06T22:28:07.923Z,86.31
2017-11-06T22:30:42.448Z,86.31
2017-11-06T22:33:17.507Z,86.34
2017-11-06T22:35:52.688Z,86.41
2017-11-06T22:38:27.613Z,86.42
2017-11-06T22:41:02.360Z,86.48
2017-11-06T22:43:37.217Z,86.43
2017-11-06T22:46:11.964Z,86.33
2017-11-06T22:48:46.756Z,86.26
2017-11-06T22:51:22.190Z,86.36
2017-11-06T22:53:56.988Z,86.38
2017-11-06T22:56:31.747Z,86.36
2017-11-06T22:59:06.692Z,86.34
2017-11-06T23:01:41.823Z,86.33
2017-11-06T23:04:16.748Z,86.25
2017-11-06T23:06:52.081Z,86.19
2017-11-06T23:09:26.933Z,86.20
2017-11-06T23:12:02.059Z,86.18
2017-11-06T23:14:36.916Z,86.10
2017-11-06T23:17:11.820Z,86.17
2017-11-06T23:19:46.911Z,86.31
2017-11-06T23:22:21.936Z,86.69
2017-11-06T23:24:56.580Z,87.03
2017-11-06T23:27:31.584Z,87.42
2017-11-06T23:30:06.804Z,87.87
2017-11-06T23:32:41.335Z,88.08
2017-11-06T23:35:17.004Z,88.25
2017-11-06T23:37:52.026Z,88.27
2017-11-06T23:40:26.976Z,88.23
2017-11-06T23:43:02.111Z,88.09
2017-11-06T23:45:36.831Z,88.25
2017-11-06T23:48:11.940Z,88.36
2017-11-06T23:50:46.595Z,88.39
2017-11-06T23:53:21.328Z,88.59
2017-11-06T23:55:55.880Z,88.82
2017-11-06T23:58:30.968Z,89.03
